Terminal Aerodrome Forecast
Issued by NWS Charleston, WV

Current Version | Previous Version | Graphics & Text | Print | Product List | Glossary On
Versions: 1 2 3 4 5 6 7 8 9 10 11 12 13 14 15 16 17 18 19 20 21 22 23 24 25 26 27 28
000
FTUS41 KRLX 281028 AAB
TAFEKN
TAF AMD
KEKN 281028Z 2810/2906 00000KT 6SM BR BKN040
      TEMPO 2810/2812 3SM BR SCT040
     FM281200 00000KT P6SM BKN015
     FM281400 00000KT P6SM SCT120
     FM281700 VRB03KT P6SM VCTS BKN040CB
     FM290200 00000KT P6SM BKN040=

USA.gov is the U.S. government's official web portal to all federal, state and local government web resources and services.